sensor_id;sensor_type;location;lat;lon;timestamp;noise_LAeq;noise_LA_min;noise_LA_max;noise_LA01;noise_LA95
66589;Laerm;53447;49.272;11.070;2023-03-01T00:00:09;41.99;36.71;46.89;;
66589;Laerm;53447;49.272;11.070;2023-03-01T00:02:35;41.09;37.17;43.47;;
66589;Laerm;53447;49.272;11.070;2023-03-01T00:05:01;40.75;35.82;44.04;;
66589;Laerm;53447;49.272;11.070;2023-03-01T00:07:26;41.16;36.87;43.47;;
66589;Laerm;53447;49.272;11.070;2023-03-01T00:09:51;42.03;38.63;43.51;;
66589;Laerm;53447;49.272;11.070;2023-03-01T00:12:17;42.03;38.83;43.57;;
66589;Laerm;53447;49.272;11.070;2023-03-01T00:14:42;41.47;36.71;43.80;;
66589;Laerm;53447;49.272;11.070;2023-03-01T00:17:07;40.16;35.41;42.89;;
66589;Laerm;53447;49.272;11.070;2023-03-01T00:19:32;41.98;37.02;51.22;;
66589;Laerm;53447;49.272;11.070;2023-03-01T00:21:58;42.38;36.20;50.44;;
66589;Laerm;53447;49.272;11.070;2023-03-01T00:24:23;40.67;36.87;43.44;;
66589;Laerm;53447;49.272;11.070;2023-03-01T00:26:48;40.28;36.87;42.69;;
66589;Laerm;53447;49.272;11.070;2023-03-01T00:29:14;41.10;36.55;43.67;;
66589;Laerm;53447;49.272;11.070;2023-03-01T00:31:39;42.19;39.39;43.61;;
66589;Laerm;53447;49.272;11.070;2023-03-01T00:34:05;42.88;38.73;50.74;;
66589;Laerm;53447;49.272;11.070;2023-03-01T00:36:32;40.83;37.02;57.90;;
66589;Laerm;53447;49.272;11.070;2023-03-01T00:38:58;41.29;37.45;51.07;;
66589;Laerm;53447;49.272;11.070;2023-03-01T00:41:23;40.67;36.38;50.54;;
66589;Laerm;53447;49.272;11.070;2023-03-01T00:43:49;40.09;35.82;51.58;;
66589;Laerm;53447;49.272;11.070;2023-03-01T00:46:18;40.44;36.02;52.23;;
66589;Laerm;53447;49.272;11.070;2023-03-01T00:48:44;40.74;37.58;44.16;;
66589;Laerm;53447;49.272;11.070;2023-03-01T00:51:16;42.26;39.96;43.83;;
66589;Laerm;53447;49.272;11.070;2023-03-01T00:53:42;42.02;39.64;43.44;;
66589;Laerm;53447;49.272;11.070;2023-03-01T00:56:09;41.14;36.71;43.47;;
66589;Laerm;53447;49.272;11.070;2023-03-01T00:58:34;40.87;37.58;43.08;;
66589;Laerm;53447;49.272;11.070;2023-03-01T01:01:00;39.90;35.41;41.89;;
66589;Laerm;53447;49.272;11.070;2023-03-01T01:03:26;40.34;36.55;42.81;;
66589;Laerm;53447;49.272;11.070;2023-03-01T01:05:51;40.80;37.17;43.08;;
66589;Laerm;53447;49.272;11.070;2023-03-01T01:08:17;42.59;38.31;46.11;;
66589;Laerm;53447;49.272;11.070;2023-03-01T01:10:43;42.37;39.39;44.04;;
66589;Laerm;53447;49.272;11.070;2023-03-01T01:13:08;41.95;38.73;43.37;;
66589;Laerm;53447;49.272;11.070;2023-03-01T01:15:34;40.64;35.62;44.16;;
66589;Laerm;53447;49.272;11.070;2023-03-01T01:18:00;41.15;37.58;43.26;;
66589;Laerm;53447;49.272;11.070;2023-03-01T01:20:25;40.70;37.71;42.73;;
66589;Laerm;53447;49.272;11.070;2023-03-01T01:22:50;42.23;37.58;46.70;;
66589;Laerm;53447;49.272;11.070;2023-03-01T01:25:16;40.84;36.71;45.09;;
66589;Laerm;53447;49.272;11.070;2023-03-01T01:27:41;41.52;37.31;43.77;;
66589;Laerm;53447;49.272;11.070;2023-03-01T01:30:07;42.27;39.64;43.86;;
66589;Laerm;53447;49.272;11.070;2023-03-01T01:32:32;42.05;39.48;43.61;;
66589;Laerm;53447;49.272;11.070;2023-03-01T01:34:57;48.95;38.42;67.52;;
66589;Laerm;53447;49.272;11.070;2023-03-01T01:37:23;41.10;37.96;43.40;;
66589;Laerm;53447;49.272;11.070;2023-03-01T01:39:55;46.71;40.03;55.21;;
66589;Laerm;53447;49.272;11.070;2023-03-01T01:42:21;40.79;37.02;43.19;;
66589;Laerm;53447;49.272;11.070;2023-03-01T01:44:47;40.79;36.38;42.73;;
66589;Laerm;53447;49.272;11.070;2023-03-01T01:47:14;41.59;38.63;43.64;;
66589;Laerm;53447;49.272;11.070;2023-03-01T01:52:52;42.14;38.73;44.25;;
66589;Laerm;53447;49.272;11.070;2023-03-01T01:55:18;41.98;39.21;43.47;;
66589;Laerm;53447;49.272;11.070;2023-03-01T01:57:47;43.24;38.83;52.72;;
66589;Laerm;53447;49.272;11.070;2023-03-01T02:00:15;41.58;37.17;48.89;;
66589;Laerm;53447;49.272;11.070;2023-03-01T02:02:40;40.29;36.20;42.85;;
66589;Laerm;53447;49.272;11.070;2023-03-01T02:07:39;40.96;37.45;43.98;;
66589;Laerm;53447;49.272;11.070;2023-03-01T02:10:04;40.61;36.87;42.93;;
66589;Laerm;53447;49.272;11.070;2023-03-01T02:12:30;41.68;37.31;44.25;;
66589;Laerm;53447;49.272;11.070;2023-03-01T02:14:55;42.33;40.03;43.92;;
66589;Laerm;53447;49.272;11.070;2023-03-01T02:17:20;41.88;37.58;45.00;;
66589;Laerm;53447;49.272;11.070;2023-03-01T02:22:22;40.80;37.02;50.28;;
66589;Laerm;53447;49.272;11.070;2023-03-01T02:24:52;40.02;35.41;50.32;;
66589;Laerm;53447;49.272;11.070;2023-03-01T02:27:19;40.02;35.41;43.01;;
66589;Laerm;53447;49.272;11.070;2023-03-01T02:29:49;41.34;37.17;47.86;;
66589;Laerm;53447;49.272;11.070;2023-03-01T02:32:15;42.14;39.80;43.77;;
66589;Laerm;53447;49.272;11.070;2023-03-01T02:34:41;42.12;39.56;43.67;;
66589;Laerm;53447;49.272;11.070;2023-03-01T02:37:08;41.32;36.87;43.47;;
66589;Laerm;53447;49.272;11.070;2023-03-01T02:39:39;40.21;36.71;42.69;;
66589;Laerm;53447;49.272;11.070;2023-03-01T02:42:07;40.25;36.38;44.52;;
66589;Laerm;53447;49.272;11.070;2023-03-01T02:44:34;40.74;37.45;43.26;;
66589;Laerm;53447;49.272;11.070;2023-03-01T02:47:01;40.18;36.38;42.53;;
66589;Laerm;53447;49.272;11.070;2023-03-01T02:49:28;41.73;37.31;43.89;;
66589;Laerm;53447;49.272;11.070;2023-03-01T02:54:40;41.39;37.02;44.16;;
66589;Laerm;53447;49.272;11.070;2023-03-01T02:57:07;40.93;36.02;43.70;;
66589;Laerm;53447;49.272;11.070;2023-03-01T02:59:34;40.42;36.38;43.33;;
66589;Laerm;53447;49.272;11.070;2023-03-01T03:02:04;40.91;37.45;43.19;;
66589;Laerm;53447;49.272;11.070;2023-03-01T03:04:29;41.17;37.02;44.16;;
66589;Laerm;53447;49.272;11.070;2023-03-01T03:06:54;40.43;36.20;43.26;;
66589;Laerm;53447;49.272;11.070;2023-03-01T03:09:20;42.11;38.83;44.04;;
66589;Laerm;53447;49.272;11.070;2023-03-01T03:11:45;41.94;39.12;43.51;;
66589;Laerm;53447;49.272;11.070;2023-03-01T03:14:13;41.76;37.71;43.70;;
66589;Laerm;53447;49.272;11.070;2023-03-01T03:16:40;41.22;36.71;44.07;;
66589;Laerm;53447;49.272;11.070;2023-03-01T03:19:05;41.31;37.58;43.92;;
66589;Laerm;53447;49.272;11.070;2023-03-01T03:21:31;40.44;36.71;42.73;;
66589;Laerm;53447;49.272;11.070;2023-03-01T03:23:57;40.50;36.71;43.26;;
66589;Laerm;53447;49.272;11.070;2023-03-01T03:26:22;41.34;37.96;43.81;;
66589;Laerm;53447;49.272;11.070;2023-03-01T03:28:48;41.28;37.84;44.07;;
66589;Laerm;53447;49.272;11.070;2023-03-01T03:31:13;44.55;40.46;51.50;;
66589;Laerm;53447;49.272;11.070;2023-03-01T03:33:38;42.10;39.03;43.89;;
66589;Laerm;53447;49.272;11.070;2023-03-01T03:36:03;41.72;38.63;44.33;;
66589;Laerm;53447;49.272;11.070;2023-03-01T03:38:30;40.84;36.55;44.23;;
66589;Laerm;53447;49.272;11.070;2023-03-01T03:41:02;41.59;37.71;46.17;;
66589;Laerm;53447;49.272;11.070;2023-03-01T03:43:28;41.61;38.63;43.95;;
66589;Laerm;53447;49.272;11.070;2023-03-01T03:45:54;41.43;38.20;43.44;;
66589;Laerm;53447;49.272;11.070;2023-03-01T03:48:21;42.01;38.42;46.84;;
66589;Laerm;53447;49.272;11.070;2023-03-01T03:50:48;43.07;40.66;48.55;;
66589;Laerm;53447;49.272;11.070;2023-03-01T03:53:15;42.83;40.85;45.98;;
66589;Laerm;53447;49.272;11.070;2023-03-01T03:55:40;43.72;38.42;50.71;;
66589;Laerm;53447;49.272;11.070;2023-03-01T03:58:06;41.34;38.42;43.64;;
66589;Laerm;53447;49.272;11.070;2023-03-01T04:00:33;42.65;38.20;47.19;;
66589;Laerm;53447;49.272;11.070;2023-03-01T04:02:58;42.80;38.20;59.91;;
66589;Laerm;53447;49.272;11.070;2023-03-01T04:05:23;53.21;38.77;73.29;;
66589;Laerm;53447;49.272;11.070;2023-03-01T04:07:48;42.47;39.88;44.25;;
66589;Laerm;53447;49.272;11.070;2023-03-01T04:10:17;42.93;40.97;45.66;;
66589;Laerm;53447;49.272;11.070;2023-03-01T04:12:43;42.73;40.32;44.52;;
66589;Laerm;53447;49.272;11.070;2023-03-01T04:15:08;43.04;40.66;49.08;;
66589;Laerm;53447;49.272;11.070;2023-03-01T04:17:40;42.92;40.59;45.62;;
66589;Laerm;53447;49.272;11.070;2023-03-01T04:20:07;43.08;41.15;47.08;;
66589;Laerm;53447;49.272;11.070;2023-03-01T04:22:33;46.12;40.91;54.74;;
66589;Laerm;53447;49.272;11.070;2023-03-01T04:24:58;42.49;39.96;44.49;;
66589;Laerm;53447;49.272;11.070;2023-03-01T04:27:31;43.18;40.32;51.01;;
66589;Laerm;53447;49.272;11.070;2023-03-01T04:29:56;42.48;39.88;47.93;;
66589;Laerm;53447;49.272;11.070;2023-03-01T04:32:21;42.54;39.12;47.70;;
66589;Laerm;53447;49.272;11.070;2023-03-01T04:34:47;41.94;38.63;44.13;;
66589;Laerm;53447;49.272;11.070;2023-03-01T04:37:12;43.40;40.39;57.69;;
66589;Laerm;53447;49.272;11.070;2023-03-01T04:39:37;43.15;39.96;48.17;;
66589;Laerm;53447;49.272;11.070;2023-03-01T04:42:10;42.09;39.21;44.83;;
66589;Laerm;53447;49.272;11.070;2023-03-01T04:44:36;42.69;40.18;44.47;;
66589;Laerm;53447;49.272;11.070;2023-03-01T04:47:01;42.84;41.03;44.39;;
66589;Laerm;53447;49.272;11.070;2023-03-01T04:49:26;43.33;41.38;48.37;;
66589;Laerm;53447;49.272;11.070;2023-03-01T04:51:51;43.20;41.38;45.96;;
66589;Laerm;53447;49.272;11.070;2023-03-01T04:54:16;42.79;40.46;46.55;;
66589;Laerm;53447;49.272;11.070;2023-03-01T04:56:42;53.37;41.15;73.07;;
66589;Laerm;53447;49.272;11.070;2023-03-01T04:59:07;53.08;41.26;72.75;;
66589;Laerm;53447;49.272;11.070;2023-03-01T05:01:35;45.37;40.53;54.20;;
66589;Laerm;53447;49.272;11.070;2023-03-01T05:04:00;42.62;40.53;48.66;;
66589;Laerm;53447;49.272;11.070;2023-03-01T05:06:27;43.23;41.21;47.46;;
66589;Laerm;53447;49.272;11.070;2023-03-01T05:08:53;43.21;41.26;55.17;;
66589;Laerm;53447;49.272;11.070;2023-03-01T05:11:18;43.22;41.40;55.47;;
66589;Laerm;53447;49.272;11.070;2023-03-01T05:13:43;43.45;40.32;55.76;;
66589;Laerm;53447;49.272;11.070;2023-03-01T05:16:09;44.42;41.48;57.26;;
66589;Laerm;53447;49.272;11.070;2023-03-01T05:18:37;50.43;40.63;67.86;;
66589;Laerm;53447;49.272;11.070;2023-03-01T05:21:06;43.79;40.79;56.15;;
66589;Laerm;53447;49.272;11.070;2023-03-01T05:23:32;43.27;40.72;55.86;;
66589;Laerm;53447;49.272;11.070;2023-03-01T05:25:58;43.16;40.97;49.55;;
66589;Laerm;53447;49.272;11.070;2023-03-01T05:28:24;44.54;41.64;57.02;;
66589;Laerm;53447;49.272;11.070;2023-03-01T05:30:50;43.50;41.59;63.57;;
66589;Laerm;53447;49.272;11.070;2023-03-01T05:33:16;44.29;41.69;56.40;;
66589;Laerm;53447;49.272;11.070;2023-03-01T05:35:42;43.80;41.94;55.54;;
66589;Laerm;53447;49.272;11.070;2023-03-01T05:38:08;43.51;41.38;51.14;;
66589;Laerm;53447;49.272;11.070;2023-03-01T05:40:34;44.32;41.54;53.04;;
66589;Laerm;53447;49.272;11.070;2023-03-01T05:42:59;45.81;41.32;60.52;;
66589;Laerm;53447;49.272;11.070;2023-03-01T05:45:25;53.67;41.43;71.89;;
66589;Laerm;53447;49.272;11.070;2023-03-01T05:47:51;53.27;41.89;73.92;;
66589;Laerm;53447;49.272;11.070;2023-03-01T05:50:18;50.28;41.38;63.07;;
66589;Laerm;53447;49.272;11.070;2023-03-01T05:52:44;51.55;41.99;64.37;;
66589;Laerm;53447;49.272;11.070;2023-03-01T05:55:10;50.46;41.48;62.06;;
66589;Laerm;53447;49.272;11.070;2023-03-01T05:57:35;55.43;41.38;72.96;;
66589;Laerm;53447;49.272;11.070;2023-03-01T06:00:00;49.98;41.64;63.42;;
66589;Laerm;53447;49.272;11.070;2023-03-01T06:02:26;51.88;41.99;65.03;;
66589;Laerm;53447;49.272;11.070;2023-03-01T06:04:52;55.23;42.61;70.67;;
66589;Laerm;53447;49.272;11.070;2023-03-01T06:07:17;52.31;42.69;63.52;;
66589;Laerm;53447;49.272;11.070;2023-03-01T06:09:42;54.31;42.81;68.83;;
66589;Laerm;53447;49.272;11.070;2023-03-01T06:12:07;53.25;42.62;67.00;;
66589;Laerm;53447;49.272;11.070;2023-03-01T06:14:33;55.16;42.44;73.08;;
66589;Laerm;53447;49.272;11.070;2023-03-01T06:16:58;54.91;41.59;71.22;;
66589;Laerm;53447;49.272;11.070;2023-03-01T06:19:23;47.88;41.38;61.31;;
66589;Laerm;53447;49.272;11.070;2023-03-01T06:21:49;55.74;41.94;73.13;;
66589;Laerm;53447;49.272;11.070;2023-03-01T06:24:14;54.38;42.31;72.90;;
66589;Laerm;53447;49.272;11.070;2023-03-01T06:26:39;49.84;41.94;62.46;;
66589;Laerm;53447;49.272;11.070;2023-03-01T06:29:04;52.75;42.18;67.55;;
66589;Laerm;53447;49.272;11.070;2023-03-01T06:31:30;57.66;41.94;74.84;;
66589;Laerm;53447;49.272;11.070;2023-03-01T06:33:55;57.32;41.89;75.31;;
66589;Laerm;53447;49.272;11.070;2023-03-01T06:36:20;58.23;41.74;75.98;;
66589;Laerm;53447;49.272;11.070;2023-03-01T06:38:46;55.65;41.26;74.31;;
66589;Laerm;53447;49.272;11.070;2023-03-01T06:41:12;57.09;41.43;75.00;;
66589;Laerm;53447;49.272;11.070;2023-03-01T06:43:37;54.13;41.84;69.62;;
66589;Laerm;53447;49.272;11.070;2023-03-01T06:46:05;47.24;41.15;60.66;;
66589;Laerm;53447;49.272;11.070;2023-03-01T06:48:31;50.17;42.04;68.22;;
66589;Laerm;53447;49.272;11.070;2023-03-01T06:51:00;53.37;41.43;71.11;;
66589;Laerm;53447;49.272;11.070;2023-03-01T06:53:26;49.58;41.59;64.35;;
66589;Laerm;53447;49.272;11.070;2023-03-01T06:55:55;49.43;41.38;64.54;;
66589;Laerm;53447;49.272;11.070;2023-03-01T06:58:21;50.68;40.91;66.85;;
66589;Laerm;53447;49.272;11.070;2023-03-01T07:00:46;53.90;40.91;72.23;;
66589;Laerm;53447;49.272;11.070;2023-03-01T07:03:11;50.81;40.72;65.89;;
66589;Laerm;53447;49.272;11.070;2023-03-01T07:05:36;55.85;41.48;72.03;;
66589;Laerm;53447;49.272;11.070;2023-03-01T07:08:02;54.70;41.21;70.36;;
66589;Laerm;53447;49.272;11.070;2023-03-01T07:10:27;54.49;42.18;69.81;;
66589;Laerm;53447;49.272;11.070;2023-03-01T07:12:56;53.57;41.54;67.88;;
66589;Laerm;53447;49.272;11.070;2023-03-01T07:15:21;53.56;41.64;67.85;;
66589;Laerm;53447;49.272;11.070;2023-03-01T07:17:47;54.26;41.54;68.60;;
66589;Laerm;53447;49.272;11.070;2023-03-01T07:20:14;53.35;40.53;67.09;;
66589;Laerm;53447;49.272;11.070;2023-03-01T07:22:40;55.21;40.53;71.86;;
66589;Laerm;53447;49.272;11.070;2023-03-01T07:25:07;47.47;40.03;66.72;;
66589;Laerm;53447;49.272;11.070;2023-03-01T07:27:32;53.76;40.32;64.95;;
66589;Laerm;53447;49.272;11.070;2023-03-01T07:29:58;56.34;40.53;75.70;;
66589;Laerm;53447;49.272;11.070;2023-03-01T07:32:23;51.89;39.96;66.80;;
66589;Laerm;53447;49.272;11.070;2023-03-01T07:34:48;52.89;39.56;66.73;;
66589;Laerm;53447;49.272;11.070;2023-03-01T07:37:13;54.62;40.46;73.00;;
66589;Laerm;53447;49.272;11.070;2023-03-01T07:39:39;56.21;40.03;74.39;;
66589;Laerm;53447;49.272;11.070;2023-03-01T07:42:04;50.36;40.91;65.35;;
66589;Laerm;53447;49.272;11.070;2023-03-01T07:44:29;48.45;39.72;65.15;;
66589;Laerm;53447;49.272;11.070;2023-03-01T07:46:55;54.76;40.18;73.23;;
66589;Laerm;53447;49.272;11.070;2023-03-01T07:49:21;60.94;40.85;78.39;;
66589;Laerm;53447;49.272;11.070;2023-03-01T07:51:47;54.13;41.38;72.34;;
66589;Laerm;53447;49.272;11.070;2023-03-01T07:54:12;47.77;40.03;66.58;;
66589;Laerm;53447;49.272;11.070;2023-03-01T07:56:37;53.62;39.48;68.25;;
66589;Laerm;53447;49.272;11.070;2023-03-01T07:59:02;53.27;39.83;69.93;;
66589;Laerm;53447;49.272;11.070;2023-03-01T08:01:28;54.80;39.39;71.79;;
66589;Laerm;53447;49.272;11.070;2023-03-01T08:03:54;55.83;40.53;72.67;;
66589;Laerm;53447;49.272;11.070;2023-03-01T08:06:19;64.43;39.48;86.70;;
66589;Laerm;53447;49.272;11.070;2023-03-01T08:11:36;52.55;38.53;77.01;;
66589;Laerm;53447;49.272;11.070;2023-03-01T08:14:02;51.80;40.25;68.02;;
66589;Laerm;53447;49.272;11.070;2023-03-01T08:16:31;52.30;38.42;71.77;;
66589;Laerm;53447;49.272;11.070;2023-03-01T08:19:02;55.08;40.85;72.05;;
66589;Laerm;53447;49.272;11.070;2023-03-01T08:21:28;55.97;40.59;70.73;;
66589;Laerm;53447;49.272;11.070;2023-03-01T08:23:53;51.67;39.96;67.03;;
66589;Laerm;53447;49.272;11.070;2023-03-01T08:26:19;55.38;39.56;70.29;;
66589;Laerm;53447;49.272;11.070;2023-03-01T08:28:46;48.54;39.48;64.21;;
66589;Laerm;53447;49.272;11.070;2023-03-01T08:31:20;51.13;40.11;67.47;;
66589;Laerm;53447;49.272;11.070;2023-03-01T08:33:46;54.36;39.88;72.13;;
66589;Laerm;53447;49.272;11.070;2023-03-01T08:36:15;46.05;39.96;63.81;;
66589;Laerm;53447;49.272;11.070;2023-03-01T08:38:41;52.36;39.88;70.55;;
66589;Laerm;53447;49.272;11.070;2023-03-01T08:41:06;49.73;39.30;64.67;;
66589;Laerm;53447;49.272;11.070;2023-03-01T08:43:31;46.00;40.66;63.86;;
66589;Laerm;53447;49.272;11.070;2023-03-01T08:45:57;44.97;39.76;59.49;;
66589;Laerm;53447;49.272;11.070;2023-03-01T08:48:22;49.40;38.93;75.54;;
66589;Laerm;53447;49.272;11.070;2023-03-01T08:50:47;48.47;39.72;61.99;;
66589;Laerm;53447;49.272;11.070;2023-03-01T08:53:12;50.77;38.93;68.67;;
66589;Laerm;53447;49.272;11.070;2023-03-01T08:55:38;44.60;39.03;63.92;;
66589;Laerm;53447;49.272;11.070;2023-03-01T08:58:03;46.16;38.83;63.80;;
66589;Laerm;53447;49.272;11.070;2023-03-01T09:00:28;47.04;40.46;62.14;;
66589;Laerm;53447;49.272;11.070;2023-03-01T09:02:53;42.39;38.31;53.46;;
66589;Laerm;53447;49.272;11.070;2023-03-01T09:05:19;51.73;39.30;71.01;;
66589;Laerm;53447;49.272;11.070;2023-03-01T09:07:52;48.90;39.21;74.50;;
66589;Laerm;53447;49.272;11.070;2023-03-01T09:10:17;45.75;39.72;65.53;;
66589;Laerm;53447;49.272;11.070;2023-03-01T09:12:52;53.01;37.84;72.80;;
66589;Laerm;53447;49.272;11.070;2023-03-01T09:15:17;47.63;40.53;61.40;;
66589;Laerm;53447;49.272;11.070;2023-03-01T09:17:42;47.18;38.93;61.54;;
66589;Laerm;53447;49.272;11.070;2023-03-01T09:20:08;48.11;38.93;61.73;;
66589;Laerm;53447;49.272;11.070;2023-03-01T09:22:34;51.05;38.63;67.83;;
66589;Laerm;53447;49.272;11.070;2023-03-01T09:25:00;51.47;39.03;67.29;;
66589;Laerm;53447;49.272;11.070;2023-03-01T09:27:25;50.80;39.30;68.08;;
66589;Laerm;53447;49.272;11.070;2023-03-01T09:29:50;49.31;38.83;66.19;;
66589;Laerm;53447;49.272;11.070;2023-03-01T09:32:16;46.34;39.03;63.25;;
66589;Laerm;53447;49.272;11.070;2023-03-01T09:34:41;50.80;39.48;66.68;;
66589;Laerm;53447;49.272;11.070;2023-03-01T09:37:26;50.13;40.25;68.46;;
66589;Laerm;53447;49.272;11.070;2023-03-01T09:39:51;50.10;40.18;65.60;;
66589;Laerm;53447;49.272;11.070;2023-03-01T09:42:16;47.53;39.03;63.57;;
66589;Laerm;53447;49.272;11.070;2023-03-01T09:44:50;46.39;38.20;61.01;;
66589;Laerm;53447;49.272;11.070;2023-03-01T09:47:18;52.89;37.58;72.96;;
66589;Laerm;53447;49.272;11.070;2023-03-01T09:49:43;47.20;39.13;64.85;;
66589;Laerm;53447;49.272;11.070;2023-03-01T09:55:23;48.05;39.21;62.61;;
66589;Laerm;53447;49.272;11.070;2023-03-01T09:57:55;55.02;37.31;74.30;;
66589;Laerm;53447;49.272;11.070;2023-03-01T10:00:23;53.27;39.88;72.16;;
66589;Laerm;53447;49.272;11.070;2023-03-01T10:02:53;52.17;39.46;70.02;;
66589;Laerm;53447;49.272;11.070;2023-03-01T10:10:48;54.31;37.84;74.76;;
66589;Laerm;53447;49.272;11.070;2023-03-01T10:15:43;42.20;38.53;56.72;;
66589;Laerm;53447;49.272;11.070;2023-03-01T10:18:12;43.81;40.32;60.14;;
66589;Laerm;53447;49.272;11.070;2023-03-01T10:20:44;42.65;39.80;53.93;;
66589;Laerm;53447;49.272;11.070;2023-03-01T10:23:11;42.95;36.20;59.63;;
66589;Laerm;53447;49.272;11.070;2023-03-01T10:30:37;44.95;37.17;57.97;;
66589;Laerm;53447;49.272;11.070;2023-03-01T10:33:05;54.77;39.96;77.99;;
66589;Laerm;53447;49.272;11.070;2023-03-01T10:35:34;55.84;39.48;74.85;;
66589;Laerm;53447;49.272;11.070;2023-03-01T10:40:27;45.18;38.83;63.33;;
66589;Laerm;53447;49.272;11.070;2023-03-01T10:42:52;48.83;40.11;63.11;;
66589;Laerm;53447;49.272;11.070;2023-03-01T10:50:29;47.04;38.83;58.24;;
66589;Laerm;53447;49.272;11.070;2023-03-01T10:52:57;50.76;38.93;69.48;;
66589;Laerm;53447;49.272;11.070;2023-03-01T11:00:54;44.00;39.12;59.91;;
66589;Laerm;53447;49.272;11.070;2023-03-01T11:05:52;43.27;38.83;54.50;;
66589;Laerm;53447;49.272;11.070;2023-03-01T11:13:55;49.37;39.39;67.37;;
66589;Laerm;53447;49.272;11.070;2023-03-01T11:16:25;47.15;40.25;65.43;;
66589;Laerm;53447;49.272;11.070;2023-03-01T11:24:29;46.96;38.63;61.36;;
66589;Laerm;53447;49.272;11.070;2023-03-01T11:26:55;46.03;39.03;57.96;;
66589;Laerm;53447;49.272;11.070;2023-03-01T11:29:29;46.41;38.42;59.51;;
66589;Laerm;53447;49.272;11.070;2023-03-01T11:31:59;45.27;38.42;65.76;;
66589;Laerm;53447;49.272;11.070;2023-03-01T11:34:35;41.70;38.73;53.47;;
66589;Laerm;53447;49.272;11.070;2023-03-01T11:37:03;43.96;39.03;64.80;;
66589;Laerm;53447;49.272;11.070;2023-03-01T11:39:39;54.88;38.20;72.77;;
66589;Laerm;53447;49.272;11.070;2023-03-01T11:42:12;47.37;38.73;62.07;;
66589;Laerm;53447;49.272;11.070;2023-03-01T11:44:40;55.97;37.96;80.64;;
66589;Laerm;53447;49.272;11.070;2023-03-01T12:08:01;50.60;37.45;70.23;;
66589;Laerm;53447;49.272;11.070;2023-03-01T12:10:35;44.08;38.53;58.98;;
66589;Laerm;53447;49.272;11.070;2023-03-01T12:21:02;44.14;37.71;56.54;;
66589;Laerm;53447;49.272;11.070;2023-03-01T12:50:03;51.39;39.12;70.23;;
66589;Laerm;53447;49.272;11.070;2023-03-01T12:54:55;49.16;39.88;60.93;;
66589;Laerm;53447;49.272;11.070;2023-03-01T12:57:42;50.83;40.25;76.96;;
66589;Laerm;53447;49.272;11.070;2023-03-01T13:02:45;46.22;39.30;57.61;;
66589;Laerm;53447;49.272;11.070;2023-03-01T13:07:41;44.90;37.84;57.34;;
66589;Laerm;53447;49.272;11.070;2023-03-01T13:17:47;53.12;42.89;72.37;;
66589;Laerm;53447;49.272;11.070;2023-03-01T13:20:17;52.19;42.89;67.37;;
66589;Laerm;53447;49.272;11.070;2023-03-01T13:22:43;53.41;43.01;71.81;;
66589;Laerm;53447;49.272;11.070;2023-03-01T13:25:19;46.56;43.26;57.89;;
66589;Laerm;53447;49.272;11.070;2023-03-01T13:27:45;54.12;38.93;70.12;;
66589;Laerm;53447;49.272;11.070;2023-03-01T13:33:15;61.99;39.03;82.39;;
66589;Laerm;53447;49.272;11.070;2023-03-01T13:35:41;49.17;40.38;64.89;;
66589;Laerm;53447;49.272;11.070;2023-03-01T13:43:35;52.56;39.48;70.49;;
66589;Laerm;53447;49.272;11.070;2023-03-01T13:46:07;53.91;40.46;71.74;;
66589;Laerm;53447;49.272;11.070;2023-03-01T13:48:33;56.90;40.66;74.09;;
66589;Laerm;53447;49.272;11.070;2023-03-01T13:50:59;51.21;39.64;67.98;;
66589;Laerm;53447;49.272;11.070;2023-03-01T13:53:26;45.82;39.48;69.57;;
66589;Laerm;53447;49.272;11.070;2023-03-01T13:56:07;55.29;39.48;69.10;;
66589;Laerm;53447;49.272;11.070;2023-03-01T13:58:33;45.38;38.73;68.20;;
66589;Laerm;53447;49.272;11.070;2023-03-01T14:01:18;47.05;39.64;64.42;;
66589;Laerm;53447;49.272;11.070;2023-03-01T14:03:45;45.35;39.56;57.83;;
66589;Laerm;53447;49.272;11.070;2023-03-01T14:06:23;45.04;37.02;63.77;;
66589;Laerm;53447;49.272;11.070;2023-03-01T14:08:50;44.50;39.64;62.49;;
66589;Laerm;53447;49.272;11.070;2023-03-01T14:21:24;42.95;39.64;53.89;;
66589;Laerm;53447;49.272;11.070;2023-03-01T14:23:52;49.66;39.30;67.59;;
66589;Laerm;53447;49.272;11.070;2023-03-01T14:26:21;42.46;37.96;51.18;;
66589;Laerm;53447;49.272;11.070;2023-03-01T14:28:46;51.62;40.11;69.76;;
66589;Laerm;53447;49.272;11.070;2023-03-01T14:31:29;43.95;40.11;51.73;;
66589;Laerm;53447;49.272;11.070;2023-03-01T14:39:59;44.53;38.63;63.32;;
66589;Laerm;53447;49.272;11.070;2023-03-01T14:42:43;50.05;39.64;69.99;;
66589;Laerm;53447;49.272;11.070;2023-03-01T14:45:09;43.10;39.64;62.37;;
66589;Laerm;53447;49.272;11.070;2023-03-01T14:47:37;44.17;39.48;61.95;;
66589;Laerm;53447;49.272;11.070;2023-03-01T14:50:21;42.94;39.72;53.16;;
66589;Laerm;53447;49.272;11.070;2023-03-01T14:52:48;49.62;39.64;67.48;;
66589;Laerm;53447;49.272;11.070;2023-03-01T14:58:23;49.18;40.32;68.39;;
66589;Laerm;53447;49.272;11.070;2023-03-01T15:03:49;51.09;39.38;71.13;;
66589;Laerm;53447;49.272;11.070;2023-03-01T15:06:19;51.26;40.18;70.64;;
66589;Laerm;53447;49.272;11.070;2023-03-01T15:08:46;56.55;40.46;72.80;;
66589;Laerm;53447;49.272;11.070;2023-03-01T15:13:49;46.79;40.25;61.91;;
66589;Laerm;53447;49.272;11.070;2023-03-01T15:16:16;57.95;39.64;81.56;;
66589;Laerm;53447;49.272;11.070;2023-03-01T15:18:45;59.36;40.39;83.08;;
66589;Laerm;53447;49.272;11.070;2023-03-01T15:21:24;48.61;40.91;64.53;;
66589;Laerm;53447;49.272;11.070;2023-03-01T15:24:00;53.10;41.32;70.12;;
66589;Laerm;53447;49.272;11.070;2023-03-01T15:26:29;55.22;40.79;72.44;;
66589;Laerm;53447;49.272;11.070;2023-03-01T15:28:54;50.09;40.32;64.04;;
66589;Laerm;53447;49.272;11.070;2023-03-01T15:31:41;55.09;39.30;73.15;;
66589;Laerm;53447;49.272;11.070;2023-03-01T15:36:47;50.91;40.72;69.48;;
66589;Laerm;53447;49.272;11.070;2023-03-01T15:39:27;44.06;40.32;56.29;;
66589;Laerm;53447;49.272;11.070;2023-03-01T15:41:53;55.51;40.32;75.19;;
66589;Laerm;53447;49.272;11.070;2023-03-01T15:44:27;53.15;39.88;72.11;;
66589;Laerm;53447;49.272;11.070;2023-03-01T15:46:53;45.71;40.46;65.83;;
66589;Laerm;53447;49.272;11.070;2023-03-01T15:51:49;47.01;40.97;62.10;;
66589;Laerm;53447;49.272;11.070;2023-03-01T15:54:19;53.51;38.73;70.77;;
66589;Laerm;53447;49.272;11.070;2023-03-01T15:56:46;50.72;40.11;67.88;;
66589;Laerm;53447;49.272;11.070;2023-03-01T15:59:11;48.09;40.32;62.63;;
66589;Laerm;53447;49.272;11.070;2023-03-01T16:01:38;57.62;40.53;77.94;;
66589;Laerm;53447;49.272;11.070;2023-03-01T16:04:04;51.47;39.12;69.24;;
66589;Laerm;53447;49.272;11.070;2023-03-01T16:06:29;55.16;40.59;70.34;;
66589;Laerm;53447;49.272;11.070;2023-03-01T16:08:54;52.15;41.94;68.92;;
66589;Laerm;53447;49.272;11.070;2023-03-01T16:11:20;52.82;41.64;70.43;;
66589;Laerm;53447;49.272;11.070;2023-03-01T16:13:46;48.23;40.91;60.76;;
66589;Laerm;53447;49.272;11.070;2023-03-01T16:16:14;56.57;40.97;73.51;;